Aviation Digital Data Service (ADDS)

Output produced by TAFs form (1648 UTC 24 October 2014)
found at http://aviationweather.gov/adds/tafs/
 
KROW 241137Z 2412/2512 VRB06KT P6SM SKC 
     TEMPO 2413/2416 5SM BR 
     FM241600 16007KT P6SM SKC 
     FM250200 VRB06KT P6SM SKC